Accueil
METAR-TAF:

METAR-TAF

Aéroports :

Jefferson County International Airport

Port Townsend, Washington, États-Unis

latitude: 48-03-14N, longitude: 122-48-38W, altitude: 33 m

Observation

Le bulletin a été fait il y a 24 minutes, à 11:15 UTC
Vent 7 kt de sud avec des rafales jusqu'à 13 kt
Température 16°C
Humidité 82%
Pression 1009 hPa
Visibilité: 16.1 km
Ciel couvert à une hauteur de 1400 ft

METAR: K0S9 221115Z AUTO 18007G13KT 10SM OVC014 16/13 A2979 RMK AO2

Heure: 04:39 (11:39 UTC)


TAF: absent

Observations et prévisions météorologiques de plus de 4000 aéroports (messages METAR et TAF).

Les stations disponibles sont représentées par des disques jaunes et rouges sur la carte.

Passer la souris dessus pour voir le nom de la station.

Cliquer dessus pour voir les observations et prévisions météorologiques.

Pour changer de carte: cliquez sur les boutons verts avec une croix noire pour zoomer, sur le bouton vert avec un tiret pour effectuer un zoom arrière, ou sur les flèches vertes pour les cartes adjacentes.


METAR-TAF: